sensor_id;sensor_type;location;lat;lon;timestamp;pressure;altitude;pressure_sealevel;temperature;humidity
80393;BME280;69719;45.544;10.218;2023-05-27T00:01:01;100223.31;;;21.32;73.06
80393;BME280;69719;45.544;10.218;2023-05-27T00:03:26;100215.63;;;21.36;74.31
80393;BME280;69719;45.544;10.218;2023-05-27T00:05:52;100226.25;;;21.31;75.76
80393;BME280;69719;45.544;10.218;2023-05-27T00:08:17;100223.16;;;21.19;76.76
80393;BME280;69719;45.544;10.218;2023-05-27T00:10:43;100228.47;;;21.14;76.12
80393;BME280;69719;45.544;10.218;2023-05-27T00:13:09;100222.38;;;21.13;76.30
80393;BME280;69719;45.544;10.218;2023-05-27T00:15:34;100218.94;;;21.13;76.67
80393;BME280;69719;45.544;10.218;2023-05-27T00:18:00;100222.44;;;20.98;77.33
80393;BME280;69719;45.544;10.218;2023-05-27T00:20:27;100223.63;;;20.82;77.76
80393;BME280;69719;45.544;10.218;2023-05-27T00:22:55;100233.28;;;21.02;76.92
80393;BME280;69719;45.544;10.218;2023-05-27T00:25:22;100233.09;;;20.88;76.97
80393;BME280;69719;45.544;10.218;2023-05-27T00:27:48;100232.28;;;20.98;75.70
80393;BME280;69719;45.544;10.218;2023-05-27T00:30:15;100237.59;;;20.88;76.23
80393;BME280;69719;45.544;10.218;2023-05-27T00:32:41;100234.78;;;20.69;77.20
80393;BME280;69719;45.544;10.218;2023-05-27T00:35:07;100236.06;;;20.76;76.73
80393;BME280;69719;45.544;10.218;2023-05-27T00:37:33;100240.00;;;20.84;75.49
80393;BME280;69719;45.544;10.218;2023-05-27T00:39:58;100236.50;;;20.94;75.50
80393;BME280;69719;45.544;10.218;2023-05-27T00:42:25;100242.88;;;20.93;77.24
80393;BME280;69719;45.544;10.218;2023-05-27T00:44:50;100247.78;;;21.14;75.80
80393;BME280;69719;45.544;10.218;2023-05-27T00:47:16;100238.31;;;20.98;76.05
80393;BME280;69719;45.544;10.218;2023-05-27T00:49:42;100242.84;;;20.98;76.42
80393;BME280;69719;45.544;10.218;2023-05-27T00:52:08;100245.88;;;20.76;77.20
80393;BME280;69719;45.544;10.218;2023-05-27T00:54:34;100234.94;;;20.88;76.88
80393;BME280;69719;45.544;10.218;2023-05-27T00:57:00;100235.53;;;20.74;77.92
80393;BME280;69719;45.544;10.218;2023-05-27T00:59:28;100230.56;;;20.68;76.82
80393;BME280;69719;45.544;10.218;2023-05-27T01:01:53;100227.66;;;20.64;77.04
80393;BME280;69719;45.544;10.218;2023-05-27T01:04:19;100228.13;;;20.82;76.40
80393;BME280;69719;45.544;10.218;2023-05-27T01:09:48;100236.69;;;20.63;77.72
80393;BME280;69719;45.544;10.218;2023-05-27T01:14:58;100233.03;;;20.49;78.06
80393;BME280;69719;45.544;10.218;2023-05-27T01:17:24;100234.06;;;20.53;77.38
80393;BME280;69719;45.544;10.218;2023-05-27T01:19:52;100234.88;;;20.49;78.53
80393;BME280;69719;45.544;10.218;2023-05-27T01:22:19;100242.50;;;20.55;75.36
80393;BME280;69719;45.544;10.218;2023-05-27T01:24:45;100241.97;;;20.63;75.88
80393;BME280;69719;45.544;10.218;2023-05-27T01:27:11;100241.97;;;20.58;75.10
80393;BME280;69719;45.544;10.218;2023-05-27T01:29:39;100235.69;;;20.44;76.00
80393;BME280;69719;45.544;10.218;2023-05-27T01:32:36;100239.91;;;20.50;75.52
80393;BME280;69719;45.544;10.218;2023-05-27T01:35:09;100235.13;;;20.52;75.54
80393;BME280;69719;45.544;10.218;2023-05-27T01:37:38;100240.44;;;20.42;76.50
80393;BME280;69719;45.544;10.218;2023-05-27T01:40:07;100239.41;;;20.38;77.99
80393;BME280;69719;45.544;10.218;2023-05-27T01:42:35;100236.28;;;20.31;77.26
80393;BME280;69719;45.544;10.218;2023-05-27T01:45:02;100244.22;;;20.21;78.41
80393;BME280;69719;45.544;10.218;2023-05-27T01:47:30;100240.47;;;20.32;77.40
80393;BME280;69719;45.544;10.218;2023-05-27T01:49:56;100252.66;;;20.08;77.78
80393;BME280;69719;45.544;10.218;2023-05-27T01:52:21;100250.56;;;20.00;78.88
80393;BME280;69719;45.544;10.218;2023-05-27T01:54:47;100247.94;;;20.00;77.58
80393;BME280;69719;45.544;10.218;2023-05-27T01:57:12;100251.88;;;20.02;78.24
80393;BME280;69719;45.544;10.218;2023-05-27T01:59:38;100252.38;;;20.20;78.95
80393;BME280;69719;45.544;10.218;2023-05-27T02:02:04;100254.00;;;19.95;77.15
80393;BME280;69719;45.544;10.218;2023-05-27T02:04:30;100263.22;;;20.18;77.54
80393;BME280;69719;45.544;10.218;2023-05-27T02:06:55;100254.78;;;20.16;77.59
80393;BME280;69719;45.544;10.218;2023-05-27T02:09:21;100247.91;;;20.15;78.01
80393;BME280;69719;45.544;10.218;2023-05-27T02:11:46;100258.50;;;20.05;78.44
80393;BME280;69719;45.544;10.218;2023-05-27T02:14:12;100259.28;;;20.06;78.71
80393;BME280;69719;45.544;10.218;2023-05-27T02:16:37;100255.34;;;19.88;79.85
80393;BME280;69719;45.544;10.218;2023-05-27T02:19:05;100261.16;;;19.95;78.97
80393;BME280;69719;45.544;10.218;2023-05-27T02:21:31;100261.38;;;20.14;78.86
80393;BME280;69719;45.544;10.218;2023-05-27T02:23:57;100266.19;;;20.02;79.63
80393;BME280;69719;45.544;10.218;2023-05-27T02:26:23;100264.31;;;19.87;79.09
80393;BME280;69719;45.544;10.218;2023-05-27T02:28:48;100263.81;;;19.70;81.84
80393;BME280;69719;45.544;10.218;2023-05-27T02:31:14;100260.13;;;19.71;82.09
80393;BME280;69719;45.544;10.218;2023-05-27T02:33:39;100259.31;;;19.90;80.55
80393;BME280;69719;45.544;10.218;2023-05-27T02:36:05;100273.59;;;19.79;81.75
80393;BME280;69719;45.544;10.218;2023-05-27T02:38:31;100272.25;;;19.82;80.53
80393;BME280;69719;45.544;10.218;2023-05-27T02:40:57;100271.72;;;19.95;82.58
80393;BME280;69719;45.544;10.218;2023-05-27T02:43:22;100259.28;;;20.06;80.88
80393;BME280;69719;45.544;10.218;2023-05-27T02:45:48;100261.09;;;20.15;78.82
80393;BME280;69719;45.544;10.218;2023-05-27T02:48:13;100255.56;;;20.27;78.98
80393;BME280;69719;45.544;10.218;2023-05-27T02:50:39;100257.41;;;20.26;78.73
80393;BME280;69719;45.544;10.218;2023-05-27T02:53:04;100268.75;;;20.32;77.96
80393;BME280;69719;45.544;10.218;2023-05-27T02:55:30;100259.53;;;20.24;77.37
80393;BME280;69719;45.544;10.218;2023-05-27T02:57:55;100262.47;;;20.23;77.06
80393;BME280;69719;45.544;10.218;2023-05-27T03:00:21;100269.28;;;20.34;76.19
80393;BME280;69719;45.544;10.218;2023-05-27T03:02:47;100271.69;;;20.25;76.05
80393;BME280;69719;45.544;10.218;2023-05-27T03:05:13;100269.03;;;20.25;75.16
80393;BME280;69719;45.544;10.218;2023-05-27T03:07:38;100271.69;;;20.15;75.57
80393;BME280;69719;45.544;10.218;2023-05-27T03:10:06;100268.50;;;20.13;76.46
80393;BME280;69719;45.544;10.218;2023-05-27T03:12:32;100273.00;;;20.13;76.54
80393;BME280;69719;45.544;10.218;2023-05-27T03:14:58;100275.63;;;20.18;75.34
80393;BME280;69719;45.544;10.218;2023-05-27T03:17:24;100270.91;;;20.05;77.75
80393;BME280;69719;45.544;10.218;2023-05-27T03:19:49;100268.81;;;19.96;77.50
80393;BME280;69719;45.544;10.218;2023-05-27T03:22:15;100265.38;;;19.91;78.60
80393;BME280;69719;45.544;10.218;2023-05-27T03:24:40;100268.03;;;19.86;78.64
80393;BME280;69719;45.544;10.218;2023-05-27T03:27:06;100272.25;;;19.72;79.47
80393;BME280;69719;45.544;10.218;2023-05-27T03:29:32;100277.81;;;19.75;79.33
80393;BME280;69719;45.544;10.218;2023-05-27T03:31:58;100268.56;;;19.63;79.96
80393;BME280;69719;45.544;10.218;2023-05-27T03:34:23;100264.34;;;19.62;79.17
80393;BME280;69719;45.544;10.218;2023-05-27T03:36:49;100258.53;;;19.80;79.70
80393;BME280;69719;45.544;10.218;2023-05-27T03:39:16;100259.31;;;19.70;79.88
80393;BME280;69719;45.544;10.218;2023-05-27T03:41:42;100263.53;;;19.66;78.57
80393;BME280;69719;45.544;10.218;2023-05-27T03:44:08;100262.19;;;19.89;77.70
80393;BME280;69719;45.544;10.218;2023-05-27T03:46:34;100270.94;;;19.94;76.64
80393;BME280;69719;45.544;10.218;2023-05-27T03:49:00;100267.50;;;19.99;75.87
80393;BME280;69719;45.544;10.218;2023-05-27T03:51:25;100268.78;;;20.07;77.30
80393;BME280;69719;45.544;10.218;2023-05-27T03:53:51;100273.28;;;20.06;76.35
80393;BME280;69719;45.544;10.218;2023-05-27T03:56:17;100276.47;;;20.03;77.94
80393;BME280;69719;45.544;10.218;2023-05-27T03:58:43;100265.09;;;20.02;76.17
80393;BME280;69719;45.544;10.218;2023-05-27T04:01:08;100270.66;;;19.96;78.67
80393;BME280;69719;45.544;10.218;2023-05-27T04:03:35;100273.28;;;20.06;76.71
80393;BME280;69719;45.544;10.218;2023-05-27T04:06:00;100280.94;;;20.18;77.18
80393;BME280;69719;45.544;10.218;2023-05-27T04:08:26;100283.28;;;20.19;77.10
80393;BME280;69719;45.544;10.218;2023-05-27T04:10:55;100282.28;;;20.00;78.32
80393;BME280;69719;45.544;10.218;2023-05-27T04:13:21;100283.84;;;19.96;77.90
80393;BME280;69719;45.544;10.218;2023-05-27T04:15:46;100286.22;;;20.13;76.34
80393;BME280;69719;45.544;10.218;2023-05-27T04:18:12;100286.25;;;19.72;79.39
80393;BME280;69719;45.544;10.218;2023-05-27T04:20:39;100293.88;;;19.49;80.44
80393;BME280;69719;45.544;10.218;2023-05-27T04:23:07;100293.63;;;19.70;81.51
80393;BME280;69719;45.544;10.218;2023-05-27T04:25:33;100298.13;;;19.65;81.20
80393;BME280;69719;45.544;10.218;2023-05-27T04:28:07;100296.56;;;19.84;75.13
80393;BME280;69719;45.544;10.218;2023-05-27T04:30:34;100303.94;;;19.82;77.14
80393;BME280;69719;45.544;10.218;2023-05-27T04:33:00;100296.03;;;19.82;74.28
80393;BME280;69719;45.544;10.218;2023-05-27T04:35:26;100297.03;;;20.06;74.31
80393;BME280;69719;45.544;10.218;2023-05-27T04:37:52;100302.59;;;20.20;73.79
80393;BME280;69719;45.544;10.218;2023-05-27T04:40:17;100300.22;;;20.08;75.64
80393;BME280;69719;45.544;10.218;2023-05-27T04:42:43;100301.53;;;20.11;74.89
80393;BME280;69719;45.544;10.218;2023-05-27T04:45:09;100304.97;;;20.06;75.94
80393;BME280;69719;45.544;10.218;2023-05-27T04:47:38;100302.34;;;19.91;77.70
80393;BME280;69719;45.544;10.218;2023-05-27T04:50:06;100306.31;;;19.83;78.65
80393;BME280;69719;45.544;10.218;2023-05-27T04:52:33;100309.22;;;19.97;78.62
80393;BME280;69719;45.544;10.218;2023-05-27T04:55:05;100318.19;;;19.96;78.81
80393;BME280;69719;45.544;10.218;2023-05-27T04:57:31;100320.84;;;20.01;78.46
80393;BME280;69719;45.544;10.218;2023-05-27T04:59:58;100329.28;;;20.23;76.00
80393;BME280;69719;45.544;10.218;2023-05-27T05:02:38;100325.06;;;20.32;75.15
80393;BME280;69719;45.544;10.218;2023-05-27T05:05:08;100322.41;;;20.17;77.56
80393;BME280;69719;45.544;10.218;2023-05-27T05:07:35;100333.25;;;20.11;77.07
80393;BME280;69719;45.544;10.218;2023-05-27T05:10:09;100326.13;;;20.26;76.43
80393;BME280;69719;45.544;10.218;2023-05-27T05:12:35;100330.63;;;20.36;76.10
80393;BME280;69719;45.544;10.218;2023-05-27T05:15:01;100331.63;;;20.50;74.72
80393;BME280;69719;45.544;10.218;2023-05-27T05:17:27;100331.09;;;20.53;75.01
80393;BME280;69719;45.544;10.218;2023-05-27T05:19:53;100341.44;;;20.39;75.13
80393;BME280;69719;45.544;10.218;2023-05-27T05:22:18;100335.09;;;20.25;77.01
80393;BME280;69719;45.544;10.218;2023-05-27T05:24:50;100337.78;;;20.20;78.00
80393;BME280;69719;45.544;10.218;2023-05-27T05:27:16;100349.91;;;20.41;75.46
80393;BME280;69719;45.544;10.218;2023-05-27T05:29:41;100354.38;;;20.00;78.60
80393;BME280;69719;45.544;10.218;2023-05-27T05:32:08;100349.91;;;20.11;77.51
80393;BME280;69719;45.544;10.218;2023-05-27T05:34:34;100343.03;;;20.30;77.59
80393;BME280;69719;45.544;10.218;2023-05-27T05:36:59;100349.63;;;20.48;75.79
80393;BME280;69719;45.544;10.218;2023-05-27T05:39:25;100356.50;;;20.39;76.01
80393;BME280;69719;45.544;10.218;2023-05-27T05:41:50;100355.19;;;20.31;76.25
80393;BME280;69719;45.544;10.218;2023-05-27T05:44:17;100357.81;;;20.46;76.95
80393;BME280;69719;45.544;10.218;2023-05-27T05:46:42;100352.53;;;20.36;71.90
80393;BME280;69719;45.544;10.218;2023-05-27T05:49:22;100350.66;;;20.52;71.01
80393;BME280;69719;45.544;10.218;2023-05-27T05:51:50;100356.97;;;20.71;69.65
80393;BME280;69719;45.544;10.218;2023-05-27T05:54:15;100350.03;;;20.85;68.66
80393;BME280;69719;45.544;10.218;2023-05-27T05:56:40;100360.88;;;20.84;67.19
80393;BME280;69719;45.544;10.218;2023-05-27T05:59:06;100360.06;;;20.93;66.49
80393;BME280;69719;45.544;10.218;2023-05-27T06:01:31;100364.00;;;21.01;67.18
80393;BME280;69719;45.544;10.218;2023-05-27T06:03:57;100360.81;;;21.09;66.24
80393;BME280;69719;45.544;10.218;2023-05-27T06:06:24;100361.06;;;21.12;67.74
80393;BME280;69719;45.544;10.218;2023-05-27T06:08:49;100356.03;;;21.11;64.28
80393;BME280;69719;45.544;10.218;2023-05-27T06:11:15;100358.16;;;21.14;64.96
80393;BME280;69719;45.544;10.218;2023-05-27T06:13:41;100359.25;;;21.08;63.94
80393;BME280;69719;45.544;10.218;2023-05-27T06:16:06;100358.66;;;21.21;63.29
80393;BME280;69719;45.544;10.218;2023-05-27T06:18:32;100355.94;;;21.31;63.35
80393;BME280;69719;45.544;10.218;2023-05-27T06:20:57;100356.69;;;21.36;62.59
80393;BME280;69719;45.544;10.218;2023-05-27T06:23:23;100361.66;;;21.53;62.23
80393;BME280;69719;45.544;10.218;2023-05-27T06:25:49;100366.34;;;21.61;61.66
80393;BME280;69719;45.544;10.218;2023-05-27T06:28:14;100367.81;;;21.77;60.68
80393;BME280;69719;45.544;10.218;2023-05-27T06:30:40;100363.09;;;21.74;59.90
80393;BME280;69719;45.544;10.218;2023-05-27T06:33:06;100378.94;;;21.84;60.47
80393;BME280;69719;45.544;10.218;2023-05-27T06:35:32;100374.16;;;21.86;59.96
80393;BME280;69719;45.544;10.218;2023-05-27T06:38:01;100376.41;;;22.03;60.31
80393;BME280;69719;45.544;10.218;2023-05-27T06:40:26;100371.38;;;22.06;59.11
80393;BME280;69719;45.544;10.218;2023-05-27T06:42:53;100366.06;;;22.06;60.15
80393;BME280;69719;45.544;10.218;2023-05-27T06:45:18;100358.16;;;22.30;58.33
80393;BME280;69719;45.544;10.218;2023-05-27T06:47:44;100358.94;;;22.31;58.75
80393;BME280;69719;45.544;10.218;2023-05-27T06:50:10;100356.97;;;22.41;57.93
80393;BME280;69719;45.544;10.218;2023-05-27T06:52:35;100357.63;;;22.57;58.13
80393;BME280;69719;45.544;10.218;2023-05-27T06:55:01;100342.75;;;22.61;56.84
80393;BME280;69719;45.544;10.218;2023-05-27T06:57:26;100348.72;;;22.71;56.70
80393;BME280;69719;45.544;10.218;2023-05-27T06:59:52;100344.50;;;22.94;55.67
80393;BME280;69719;45.544;10.218;2023-05-27T07:02:17;100344.50;;;22.94;57.39
80393;BME280;69719;45.544;10.218;2023-05-27T07:04:43;100346.25;;;23.22;57.61
80393;BME280;69719;45.544;10.218;2023-05-27T07:07:08;100341.28;;;23.16;56.49
80393;BME280;69719;45.544;10.218;2023-05-27T07:09:34;100336.84;;;23.30;56.08
80393;BME280;69719;45.544;10.218;2023-05-27T07:12:01;100333.31;;;23.39;55.33
80393;BME280;69719;45.544;10.218;2023-05-27T07:14:27;100334.50;;;23.47;54.57
80393;BME280;69719;45.544;10.218;2023-05-27T07:16:52;100334.66;;;23.55;56.15
80393;BME280;69719;45.544;10.218;2023-05-27T07:19:18;100336.63;;;23.63;56.15
80393;BME280;69719;45.544;10.218;2023-05-27T07:21:43;100335.63;;;23.59;54.73
80393;BME280;69719;45.544;10.218;2023-05-27T07:24:09;100336.00;;;23.71;53.87
80393;BME280;69719;45.544;10.218;2023-05-27T07:26:35;100334.84;;;23.77;51.86
80393;BME280;69719;45.544;10.218;2023-05-27T07:29:01;100333.72;;;23.97;52.30
80393;BME280;69719;45.544;10.218;2023-05-27T07:31:27;100330.81;;;24.12;51.50
80393;BME280;69719;45.544;10.218;2023-05-27T07:33:53;100331.06;;;24.43;51.62
80393;BME280;69719;45.544;10.218;2023-05-27T07:36:19;100326.50;;;24.30;51.00
80393;BME280;69719;45.544;10.218;2023-05-27T07:38:44;100329.47;;;24.28;47.67
80393;BME280;69719;45.544;10.218;2023-05-27T07:41:10;100327.34;;;24.44;48.17
80393;BME280;69719;45.544;10.218;2023-05-27T07:43:36;100319.34;;;24.30;48.36
80393;BME280;69719;45.544;10.218;2023-05-27T07:46:25;100324.66;;;23.98;49.78
80393;BME280;69719;45.544;10.218;2023-05-27T07:48:53;100326.16;;;23.72;50.81
80393;BME280;69719;45.544;10.218;2023-05-27T07:51:18;100320.28;;;23.56;51.03
80393;BME280;69719;45.544;10.218;2023-05-27T07:53:44;100324.81;;;23.56;50.81
80393;BME280;69719;45.544;10.218;2023-05-27T07:56:10;100323.44;;;23.58;51.04
80393;BME280;69719;45.544;10.218;2023-05-27T07:58:36;100322.34;;;23.59;51.74
80393;BME280;69719;45.544;10.218;2023-05-27T08:01:01;100317.13;;;23.87;50.64
80393;BME280;69719;45.544;10.218;2023-05-27T08:03:26;100309.53;;;24.12;50.43
80393;BME280;69719;45.544;10.218;2023-05-27T08:05:52;100316.25;;;24.10;49.86
80393;BME280;69719;45.544;10.218;2023-05-27T08:08:17;100316.47;;;24.40;49.75
80393;BME280;69719;45.544;10.218;2023-05-27T08:10:43;100311.53;;;24.34;49.40
80393;BME280;69719;45.544;10.218;2023-05-27T08:13:09;100313.22;;;24.30;49.81
80393;BME280;69719;45.544;10.218;2023-05-27T08:15:35;100314.41;;;24.51;48.58
80393;BME280;69719;45.544;10.218;2023-05-27T08:18:00;100314.59;;;24.68;49.58
80393;BME280;69719;45.544;10.218;2023-05-27T08:20:27;100306.81;;;24.85;49.35
80393;BME280;69719;45.544;10.218;2023-05-27T08:22:52;100317.75;;;24.70;48.86
80393;BME280;69719;45.544;10.218;2023-05-27T08:25:18;100308.91;;;24.61;48.28
80393;BME280;69719;45.544;10.218;2023-05-27T08:27:51;100299.63;;;24.86;47.70
80393;BME280;69719;45.544;10.218;2023-05-27T08:30:17;100293.13;;;24.92;47.87
80393;BME280;69719;45.544;10.218;2023-05-27T08:32:43;100288.63;;;25.14;47.21
80393;BME280;69719;45.544;10.218;2023-05-27T08:35:10;100301.19;;;24.73;47.88
80393;BME280;69719;45.544;10.218;2023-05-27T08:37:36;100291.66;;;24.86;48.02
80393;BME280;69719;45.544;10.218;2023-05-27T08:40:03;100292.72;;;24.98;47.92
80393;BME280;69719;45.544;10.218;2023-05-27T08:42:32;100282.19;;;24.80;48.71
80393;BME280;69719;45.544;10.218;2023-05-27T08:44:58;100285.81;;;24.70;47.43
80393;BME280;69719;45.544;10.218;2023-05-27T08:47:24;100289.50;;;24.74;48.13
80393;BME280;69719;45.544;10.218;2023-05-27T08:49:51;100282.88;;;24.72;48.50
80393;BME280;69719;45.544;10.218;2023-05-27T08:52:18;100285.31;;;24.68;47.82
80393;BME280;69719;45.544;10.218;2023-05-27T08:54:46;100284.44;;;24.73;47.93
80393;BME280;69719;45.544;10.218;2023-05-27T08:57:13;100274.09;;;24.58;48.65
80393;BME280;69719;45.544;10.218;2023-05-27T08:59:41;100277.06;;;24.83;48.47
80393;BME280;69719;45.544;10.218;2023-05-27T09:02:11;100270.00;;;25.14;47.76
80393;BME280;69719;45.544;10.218;2023-05-27T09:04:38;100278.13;;;25.32;47.05
80393;BME280;69719;45.544;10.218;2023-05-27T09:07:04;100271.84;;;25.50;46.65
80393;BME280;69719;45.544;10.218;2023-05-27T09:09:29;100274.03;;;25.48;46.25
80393;BME280;69719;45.544;10.218;2023-05-27T09:11:59;100274.41;;;25.55;46.19
80393;BME280;69719;45.544;10.218;2023-05-27T09:14:27;100281.41;;;25.73;46.36
80393;BME280;69719;45.544;10.218;2023-05-27T09:16:53;100277.53;;;25.79;45.74
80393;BME280;69719;45.544;10.218;2023-05-27T09:19:19;100267.59;;;26.01;45.52
80393;BME280;69719;45.544;10.218;2023-05-27T09:21:44;100256.34;;;26.05;44.39
80393;BME280;69719;45.544;10.218;2023-05-27T09:24:11;100265.25;;;26.00;45.19
80393;BME280;69719;45.544;10.218;2023-05-27T09:26:36;100257.09;;;26.05;44.42
80393;BME280;69719;45.544;10.218;2023-05-27T09:29:09;100255.97;;;25.97;44.85
80393;BME280;69719;45.544;10.218;2023-05-27T09:31:39;100249.69;;;25.93;44.64
80393;BME280;69719;45.544;10.218;2023-05-27T09:34:12;100251.78;;;26.05;44.54
80393;BME280;69719;45.544;10.218;2023-05-27T09:36:45;100254.50;;;26.14;44.59
80393;BME280;69719;45.544;10.218;2023-05-27T09:39:21;100247.31;;;26.23;43.78
80393;BME280;69719;45.544;10.218;2023-05-27T09:41:53;100247.03;;;26.33;42.72
80393;BME280;69719;45.544;10.218;2023-05-27T09:44:18;100243.72;;;26.27;43.53
80393;BME280;69719;45.544;10.218;2023-05-27T09:46:45;100244.16;;;26.12;43.68
80393;BME280;69719;45.544;10.218;2023-05-27T09:49:14;100242.16;;;26.26;43.18
80393;BME280;69719;45.544;10.218;2023-05-27T09:51:41;100245.22;;;26.11;43.21
80393;BME280;69719;45.544;10.218;2023-05-27T09:54:07;100243.34;;;26.12;43.74
80393;BME280;69719;45.544;10.218;2023-05-27T09:56:34;100227.78;;;26.44;44.09
80393;BME280;69719;45.544;10.218;2023-05-27T09:59:00;100237.69;;;26.69;43.57
80393;BME280;69719;45.544;10.218;2023-05-27T10:01:28;100240.78;;;26.37;44.24
80393;BME280;69719;45.544;10.218;2023-05-27T10:03:54;100234.50;;;26.33;43.62
80393;BME280;69719;45.544;10.218;2023-05-27T10:06:22;100235.41;;;26.77;43.06
80393;BME280;69719;45.544;10.218;2023-05-27T10:08:50;100225.03;;;27.01;41.60
80393;BME280;69719;45.544;10.218;2023-05-27T10:11:18;100221.84;;;26.64;42.21
80393;BME280;69719;45.544;10.218;2023-05-27T10:13:44;100219.81;;;26.70;42.98
80393;BME280;69719;45.544;10.218;2023-05-27T10:16:19;100217.78;;;26.75;42.50
80393;BME280;69719;45.544;10.218;2023-05-27T10:18:46;100211.84;;;26.87;42.61
80393;BME280;69719;45.544;10.218;2023-05-27T10:21:21;100208.78;;;26.63;43.11
80393;BME280;69719;45.544;10.218;2023-05-27T10:24:01;100205.09;;;26.72;43.43
80393;BME280;69719;45.544;10.218;2023-05-27T10:26:35;100197.69;;;26.95;43.50
80393;BME280;69719;45.544;10.218;2023-05-27T10:31:34;100201.31;;;26.91;43.25
80393;BME280;69719;45.544;10.218;2023-05-27T10:34:04;100202.72;;;27.05;43.12
80393;BME280;69719;45.544;10.218;2023-05-27T10:36:31;100199.75;;;26.98;43.16
80393;BME280;69719;45.544;10.218;2023-05-27T10:38:59;100201.16;;;27.13;42.81
80393;BME280;69719;45.544;10.218;2023-05-27T10:41:25;100200.53;;;26.99;43.58
80393;BME280;69719;45.544;10.218;2023-05-27T10:43:55;100193.44;;;27.11;42.63
80393;BME280;69719;45.544;10.218;2023-05-27T10:46:22;100194.38;;;27.24;42.36
80393;BME280;69719;45.544;10.218;2023-05-27T10:48:48;100188.75;;;27.00;42.58
80393;BME280;69719;45.544;10.218;2023-05-27T10:51:13;100186.50;;;27.19;42.24
80393;BME280;69719;45.544;10.218;2023-05-27T10:53:39;100190.47;;;26.79;43.55
80393;BME280;69719;45.544;10.218;2023-05-27T10:56:05;100186.22;;;26.77;43.76
80393;BME280;69719;45.544;10.218;2023-05-27T10:58:34;100178.84;;;26.74;43.61
80393;BME280;69719;45.544;10.218;2023-05-27T11:01:08;100179.94;;;26.99;43.13
80393;BME280;69719;45.544;10.218;2023-05-27T11:03:34;100176.28;;;27.21;43.07
80393;BME280;69719;45.544;10.218;2023-05-27T11:08:26;100180.09;;;27.03;42.63
80393;BME280;69719;45.544;10.218;2023-05-27T11:11:02;100179.16;;;27.16;42.38
80393;BME280;69719;45.544;10.218;2023-05-27T11:13:36;100171.13;;;27.16;42.26
80393;BME280;69719;45.544;10.218;2023-05-27T11:16:03;100173.78;;;27.33;42.09
80393;BME280;69719;45.544;10.218;2023-05-27T11:18:38;100176.94;;;27.35;41.90
80393;BME280;69719;45.544;10.218;2023-05-27T11:21:05;100175.78;;;27.53;41.17
80393;BME280;69719;45.544;10.218;2023-05-27T11:23:44;100157.19;;;27.57;41.53
80393;BME280;69719;45.544;10.218;2023-05-27T11:26:15;100155.19;;;27.54;42.22
80393;BME280;69719;45.544;10.218;2023-05-27T11:28:57;100164.00;;;27.54;42.52
80393;BME280;69719;45.544;10.218;2023-05-27T11:31:30;100158.03;;;27.40;42.03
80393;BME280;69719;45.544;10.218;2023-05-27T11:33:58;100162.59;;;27.22;42.60
80393;BME280;69719;45.544;10.218;2023-05-27T11:36:28;100160.91;;;27.35;42.63
80393;BME280;69719;45.544;10.218;2023-05-27T11:38:58;100156.50;;;27.22;43.10
80393;BME280;69719;45.544;10.218;2023-05-27T11:41:28;100141.69;;;27.50;42.47
80393;BME280;69719;45.544;10.218;2023-05-27T11:49:05;100141.34;;;27.52;41.20
80393;BME280;69719;45.544;10.218;2023-05-27T11:51:33;100136.34;;;27.50;42.10
80393;BME280;69719;45.544;10.218;2023-05-27T11:53:59;100124.53;;;27.51;42.40
80393;BME280;69719;45.544;10.218;2023-05-27T11:56:28;100123.84;;;27.63;41.77
80393;BME280;69719;45.544;10.218;2023-05-27T11:58:57;100118.53;;;27.54;41.54
80393;BME280;69719;45.544;10.218;2023-05-27T12:01:23;100120.94;;;27.30;42.47
80393;BME280;69719;45.544;10.218;2023-05-27T12:03:49;100122.28;;;27.07;43.53
80393;BME280;69719;45.544;10.218;2023-05-27T12:06:15;100120.25;;;26.95;43.55
80393;BME280;69719;45.544;10.218;2023-05-27T12:08:43;100113.34;;;26.94;43.28
80393;BME280;69719;45.544;10.218;2023-05-27T12:11:09;100121.03;;;26.96;43.71
80393;BME280;69719;45.544;10.218;2023-05-27T12:13:34;100118.22;;;26.84;43.73
80393;BME280;69719;45.544;10.218;2023-05-27T12:16:00;100114.72;;;27.09;42.80
80393;BME280;69719;45.544;10.218;2023-05-27T12:18:26;100120.41;;;26.99;43.18
80393;BME280;69719;45.544;10.218;2023-05-27T12:20:51;100122.91;;;27.04;43.66
80393;BME280;69719;45.544;10.218;2023-05-27T12:23:17;100112.97;;;27.21;42.36
80393;BME280;69719;45.544;10.218;2023-05-27T12:25:42;100106.56;;;26.97;42.93
80393;BME280;69719;45.544;10.218;2023-05-27T12:28:09;100102.91;;;27.10;42.60
80393;BME280;69719;45.544;10.218;2023-05-27T12:30:35;100099.75;;;27.16;42.47
80393;BME280;69719;45.544;10.218;2023-05-27T12:33:03;100102.19;;;27.01;42.89
80393;BME280;69719;45.544;10.218;2023-05-27T12:35:29;100095.91;;;26.80;43.21
80393;BME280;69719;45.544;10.218;2023-05-27T12:37:55;100093.72;;;26.82;42.51
80393;BME280;69719;45.544;10.218;2023-05-27T12:40:21;100087.59;;;26.90;42.18
80393;BME280;69719;45.544;10.218;2023-05-27T12:42:46;100081.53;;;27.10;42.58
80393;BME280;69719;45.544;10.218;2023-05-27T12:45:12;100079.66;;;27.10;42.73
80393;BME280;69719;45.544;10.218;2023-05-27T12:47:37;100087.47;;;27.32;42.95
80393;BME280;69719;45.544;10.218;2023-05-27T12:50:03;100088.75;;;27.26;42.51
80393;BME280;69719;45.544;10.218;2023-05-27T12:52:29;100088.56;;;27.40;41.99
80393;BME280;69719;45.544;10.218;2023-05-27T12:54:56;100083.84;;;27.45;41.84